Time;durP1;ratioP1;P1;durP2;ratioP2;P2;SDS_P1;SDS_P2;PMS_P1;PMS_P2;Temp;Humidity;BMP_temperature;BMP_pressure;BME280_temperature;BME280_humidity;BME280_pressure;Samples;Min_cycle;Max_cycle;Signal;HPM_P1;HPM_P2
2022/07/06 00:01:29;;;;;;;1.75;1.27;;;16.40;94.00;;;16.18;76.44;97781.56;4942715;29;20027;-39
2022/07/06 00:03:55;;;;;;;2.75;1.60;;;16.40;94.00;;;16.08;76.04;97769.72;4939241;29;20146;-39
2022/07/06 00:06:21;;;;;;;2.47;1.65;;;16.30;94.40;;;16.11;77.51;97776.66;4937090;28;20035;-39
2022/07/06 00:08:47;;;;;;;4.63;1.77;;;16.20;94.30;;;16.10;77.77;97775.81;4938178;29;20562;-39
2022/07/06 00:11:13;;;;;;;3.60;1.70;;;16.20;94.80;;;16.03;80.81;97771.78;4940875;29;20043;-40
2022/07/06 00:13:39;;;;;;;2.45;1.40;;;16.20;95.70;;;16.08;80.98;97780.38;4940162;29;20031;-39
2022/07/06 00:16:04;;;;;;;3.72;1.63;;;16.20;95.50;;;15.98;81.58;97776.47;4941197;28;20090;-39
2022/07/06 00:18:30;;;;;;;2.75;1.70;;;16.20;96.10;;;15.89;81.70;97763.66;4943060;29;20039;-39
2022/07/06 00:20:56;;;;;;;2.53;1.55;;;16.10;96.50;;;15.89;80.83;97772.50;4946463;29;20039;-39
2022/07/06 00:23:22;;;;;;;5.32;2.08;;;16.10;96.00;;;15.80;80.66;97760.53;4944330;29;20039;-39
2022/07/06 00:25:48;;;;;;;5.15;1.67;;;16.00;96.30;;;15.82;83.45;97763.97;4945117;29;20035;-39
2022/07/06 00:28:14;;;;;;;3.42;1.58;;;16.00;97.30;;;15.85;81.27;97760.31;4944937;29;20036;-39
2022/07/06 00:30:40;;;;;;;2.70;1.70;;;16.00;96.50;;;15.79;81.70;97764.16;4942375;29;20047;-40
2022/07/06 00:33:06;;;;;;;2.13;1.70;;;16.00;96.50;;;15.76;83.21;97763.44;4945991;29;20031;-39
2022/07/06 00:35:32;;;;;;;2.13;1.50;;;15.90;96.90;;;15.69;85.45;97767.34;4942270;28;22460;-39
2022/07/06 00:37:58;;;;;;;1.95;1.73;;;15.90;97.70;;;15.62;81.28;97769.44;4941119;28;20070;-39
2022/07/06 00:40:24;;;;;;;4.07;1.85;;;15.80;97.00;;;15.58;84.83;97774.06;4935832;29;20043;-40
2022/07/06 00:42:50;;;;;;;3.08;1.80;;;15.80;97.70;;;15.59;82.92;97766.94;4942012;29;20480;-40
2022/07/06 00:45:17;;;;;;;2.78;1.80;;;15.70;97.50;;;15.53;84.88;97770.75;4940747;28;20036;-40
2022/07/06 00:47:44;;;;;;;4.82;1.60;;;15.70;97.90;;;15.53;84.96;97765.44;4946364;28;20062;-40
2022/07/06 00:50:15;;;;;;;3.22;1.67;;;15.70;98.20;;;15.54;83.01;97767.19;4942084;29;20031;-40
2022/07/06 00:52:51;;;;;;;3.53;1.80;;;15.80;97.50;;;15.53;85.27;97770.75;4942909;28;20027;-40
2022/07/06 00:55:26;;;;;;;3.63;1.70;;;15.70;98.30;;;15.52;87.68;97766.38;4944635;29;20046;-40
2022/07/06 00:57:54;;;;;;;2.05;1.75;;;15.70;99.20;;;15.51;83.96;97766.47;4944452;28;20027;-40
2022/07/06 01:00:23;;;;;;;4.88;1.83;;;15.70;98.10;;;15.49;85.29;97768.31;4942151;29;20487;-40
2022/07/06 01:02:50;;;;;;;3.55;1.85;;;15.70;98.70;;;15.34;84.36;97738.94;4941180;29;20035;-40
2022/07/06 01:05:16;;;;;;;2.92;1.80;;;15.60;98.90;;;15.55;83.15;97760.06;4941446;29;20534;-39
2022/07/06 01:07:46;;;;;;;3.08;1.80;;;15.60;97.90;;;15.60;82.72;97763.34;4944287;28;20043;-40
2022/07/06 01:10:15;;;;;;;2.72;1.90;;;15.70;98.20;;;15.54;84.61;97756.56;4942242;28;20031;-40
2022/07/06 01:12:43;;;;;;;2.28;1.70;;;15.70;98.70;;;15.53;82.41;97761.94;4933399;29;20475;-40
2022/07/06 01:15:13;;;;;;;2.95;1.75;;;15.70;98.30;;;15.46;81.39;97761.38;4941029;28;20038;-40
2022/07/06 01:17:39;;;;;;;3.20;1.70;;;15.70;98.00;;;15.48;83.67;97759.50;4939959;28;20098;-40
2022/07/06 01:20:25;;;;;;;3.15;1.70;;;15.60;98.90;;;15.46;83.85;97761.38;4941030;29;20031;-40
2022/07/06 01:22:53;;;;;;;2.28;1.67;;;15.60;98.70;;;15.51;82.09;97761.16;4941498;29;20114;-40
2022/07/06 01:25:20;;;;;;;3.53;1.90;;;15.60;98.60;;;15.52;79.40;97761.06;4943479;29;20170;-40
2022/07/06 01:27:47;;;;;;;5.95;1.80;;;15.70;97.80;;;15.59;79.38;97759.81;4944674;28;20058;-40
2022/07/06 01:30:19;;;;;;;5.88;1.77;;;15.70;97.60;;;15.61;78.08;97762.38;4946196;29;20475;-40
2022/07/06 01:32:45;;;;;;;2.77;1.73;;;15.70;97.00;;;15.60;79.27;97758.88;4945471;29;20035;-40
2022/07/06 01:35:15;;;;;;;2.50;2.10;;;15.80;97.50;;;15.44;79.38;97732.22;4941789;28;20035;-40
2022/07/06 01:37:41;;;;;;;8.02;2.10;;;15.80;97.40;;;15.58;77.02;97760.75;4945312;28;20468;-40
2022/07/06 01:40:10;;;;;;;5.00;1.60;;;15.70;97.10;;;15.59;77.77;97762.47;4944651;29;20126;-40
2022/07/06 01:42:36;;;;;;;3.42;1.80;;;15.70;96.90;;;15.57;77.95;97758.19;4946079;29;20027;-40
2022/07/06 01:45:04;;;;;;;3.00;1.48;;;15.70;97.30;;;15.50;78.99;97759.44;4944408;29;20137;-40
2022/07/06 01:47:30;;;;;;;4.45;2.00;;;15.70;97.60;;;15.45;79.38;97752.56;4947495;28;20093;-40
2022/07/06 01:49:59;;;;;;;1.98;1.50;;;15.60;97.50;;;15.36;78.94;97760.13;4942275;28;20539;-40
2022/07/06 01:52:26;;;;;;;2.80;1.75;;;15.50;97.70;;;15.27;78.69;97751.69;4928151;29;20035;-40
2022/07/06 01:54:52;;;;;;;2.63;1.65;;;15.50;97.10;;;15.29;79.30;97754.28;4945318;29;20118;-40
2022/07/06 01:57:17;;;;;;;2.03;1.40;;;15.50;97.70;;;15.21;78.41;97759.94;4944083;28;20043;-40
2022/07/06 01:59:43;;;;;;;6.22;1.88;;;15.40;97.40;;;15.13;78.75;97762.16;4948087;29;20550;-40
2022/07/06 02:02:09;;;;;;;2.80;1.70;;;15.40;97.50;;;15.12;77.96;97767.53;4946312;29;20030;-40
2022/07/06 02:04:35;;;;;;;3.90;1.70;;;15.30;97.30;;;15.08;78.71;97772.13;4943962;29;20046;-40
2022/07/06 02:07:01;;;;;;;3.45;1.42;;;15.30;97.70;;;15.05;78.53;97770.47;4945446;28;20035;-40
2022/07/06 02:09:27;;;;;;;3.05;1.80;;;15.20;97.80;;;15.19;76.82;97766.28;4944224;29;20023;-40
2022/07/06 02:11:53;;;;;;;2.85;1.70;;;15.30;97.30;;;15.17;78.08;97774.34;4943668;29;20093;-40
2022/07/06 02:14:18;;;;;;;2.05;1.55;;;15.30;97.80;;;15.09;78.85;97776.50;4945751;29;20050;-40
2022/07/06 02:16:44;;;;;;;3.03;1.60;;;15.30;97.70;;;14.99;78.82;97778.75;4942364;28;20472;-40
2022/07/06 02:19:10;;;;;;;3.03;1.75;;;15.20;97.80;;;14.94;78.62;97767.50;4943782;29;20035;-40
2022/07/06 02:21:36;;;;;;;4.00;2.08;;;15.20;97.80;;;14.92;80.74;97774.69;4945457;29;20042;-40
2022/07/06 02:24:02;;;;;;;2.42;1.90;;;15.10;98.30;;;14.87;80.24;97764.28;4941712;29;20408;-40
2022/07/06 02:26:28;;;;;;;4.10;2.00;;;15.10;98.10;;;14.86;80.29;97762.56;4944011;28;20122;-40
2022/07/06 02:28:53;;;;;;;3.50;1.88;;;15.00;98.40;;;14.70;81.17;97751.81;4943681;29;20031;-40
2022/07/06 02:31:19;;;;;;;2.83;1.95;;;15.00;98.60;;;14.75;82.44;97772.84;4944092;29;20062;-40
2022/07/06 02:33:44;;;;;;;6.07;1.90;;;15.00;99.00;;;14.67;82.92;97767.03;4946545;29;20027;-40
2022/07/06 02:36:10;;;;;;;7.93;1.92;;;14.90;99.10;;;14.64;82.54;97776.03;4943680;28;20551;-40
2022/07/06 02:38:36;;;;;;;3.38;1.80;;;14.90;99.10;;;14.63;83.39;97770.78;4935713;28;20536;-40
2022/07/06 02:41:02;;;;;;;2.25;1.48;;;14.90;99.40;;;14.57;83.07;97776.31;4939268;29;20535;-40
2022/07/06 02:43:27;;;;;;;2.88;1.80;;;14.80;99.40;;;14.58;82.98;97786.91;4947511;29;20055;-41
2022/07/06 02:45:53;;;;;;;5.03;1.80;;;14.80;99.40;;;14.56;83.48;97779.94;4926194;28;20027;-40
2022/07/06 02:48:21;;;;;;;3.80;1.80;;;14.80;99.70;;;14.51;83.27;97783.63;4922328;29;20039;-40
2022/07/06 02:50:47;;;;;;;2.70;1.60;;;14.70;99.70;;;14.51;82.99;97780.97;4944893;29;20031;-41
2022/07/06 02:53:13;;;;;;;4.35;1.55;;;14.70;99.60;;;14.35;84.33;97755.25;4944234;29;20518;-40
2022/07/06 02:55:38;;;;;;;2.97;1.65;;;14.70;99.90;;;14.44;84.73;97781.34;4944199;29;20036;-40
2022/07/06 02:58:04;;;;;;;2.22;1.73;;;14.70;99.90;;;14.46;83.81;97779.47;4944519;29;20035;-40
2022/07/06 03:00:30;;;;;;;3.28;1.88;;;14.70;99.90;;;14.44;85.18;97786.66;4938624;29;20046;-40
2022/07/06 03:02:56;;;;;;;4.55;2.35;;;14.70;99.90;;;14.45;84.79;97783.94;4942263;29;20071;-41
2022/07/06 03:05:21;;;;;;;3.17;1.90;;;14.70;99.90;;;14.40;85.08;97790.41;4945393;29;20035;-40
2022/07/06 03:07:47;;;;;;;3.92;1.77;;;14.70;99.90;;;14.36;85.29;97792.31;4940294;28;20574;-40
2022/07/06 03:10:13;;;;;;;3.47;1.75;;;14.60;99.90;;;14.32;85.72;97791.59;4960949;23;20038;-50
2022/07/06 03:12:38;;;;;;;4.90;2.17;;;14.60;99.90;;;14.30;86.18;97790.81;4957333;28;20042;-48
2022/07/06 03:15:05;;;;;;;5.80;1.95;;;14.60;99.90;;;14.27;85.89;97796.25;4957916;28;20466;-51
2022/07/06 03:17:30;;;;;;;6.80;2.60;;;14.50;99.90;;;14.24;86.19;97795.53;4963605;28;20480;-48
2022/07/06 03:19:56;;;;;;;5.28;1.70;;;14.50;99.90;;;14.25;86.43;97797.28;4958114;28;20089;-50
2022/07/06 03:22:22;;;;;;;6.53;2.10;;;14.50;99.90;;;14.22;87.59;97798.25;4939417;28;20039;-51
2022/07/06 03:24:48;;;;;;;5.22;1.95;;;14.50;99.90;;;14.20;86.83;97808.06;4941347;28;20042;-49
2022/07/06 03:27:15;;;;;;;5.43;2.03;;;14.50;99.90;;;14.18;88.46;97803.78;4942511;28;20042;-49
2022/07/06 03:29:40;;;;;;;4.57;2.05;;;14.40;99.90;;;14.14;88.00;97800.41;4933296;28;20098;-49
2022/07/06 03:32:06;;;;;;;3.15;2.00;;;14.40;99.90;;;14.11;88.91;97796.09;4942590;28;20499;-49
2022/07/06 03:34:32;;;;;;;4.22;2.25;;;14.40;99.90;;;14.17;87.50;97800.25;4939718;28;20035;-47
2022/07/06 03:36:58;;;;;;;3.35;1.90;;;14.40;99.90;;;14.16;87.71;97800.31;4936730;28;20090;-50
2022/07/06 03:39:23;;;;;;;3.60;2.03;;;14.40;99.90;;;14.15;88.37;97803.91;4941412;28;20523;-51
2022/07/06 03:41:49;;;;;;;3.30;2.05;;;14.40;99.90;;;14.12;88.87;97804.91;4937352;28;20039;-47
2022/07/06 03:44:15;;;;;;;3.88;1.85;;;14.40;99.90;;;14.12;89.61;97803.13;4938767;28;20506;-48
2022/07/06 03:46:41;;;;;;;2.88;2.13;;;14.40;99.90;;;14.08;89.62;97801.53;4941203;28;20035;-51
2022/07/06 03:49:06;;;;;;;6.65;1.92;;;14.40;99.90;;;14.10;89.40;97810.28;4946216;29;20036;-49
2022/07/06 03:51:32;;;;;;;5.35;2.15;;;14.40;99.90;;;14.11;89.72;97801.38;4940610;29;20278;-52
2022/07/06 03:53:58;;;;;;;5.63;2.30;;;14.30;99.90;;;14.13;90.11;97799.53;4937622;29;20543;-52
2022/07/06 03:56:29;;;;;;;4.32;1.92;;;14.40;99.90;;;14.11;88.29;97805.84;4944021;28;20114;-49
2022/07/06 03:58:57;;;;;;;5.50;2.85;;;14.40;99.90;;;14.19;88.78;97802.84;4937124;28;20039;-51
2022/07/06 04:01:23;;;;;;;2.90;1.98;;;14.40;99.90;;;14.17;87.76;97810.84;4939193;28;20513;-46
2022/07/06 04:03:48;;;;;;;5.47;2.95;;;14.40;99.90;;;14.28;88.76;97805.06;4944113;28;20032;-51
2022/07/06 04:06:14;;;;;;;3.25;2.10;;;14.40;99.90;;;14.26;88.41;97813.09;4941570;29;20484;-50
2022/07/06 04:08:40;;;;;;;5.72;2.38;;;14.50;99.90;;;14.27;89.89;97812.19;4935908;28;20023;-50
2022/07/06 04:11:06;;;;;;;4.90;2.20;;;14.50;99.90;;;14.27;89.41;97822.78;4936300;28;20597;-49
2022/07/06 04:13:32;;;;;;;3.47;1.70;;;14.50;99.90;;;14.30;90.06;97822.66;4935921;28;20043;-49
2022/07/06 04:15:58;;;;;;;5.10;2.15;;;14.50;99.90;;;14.37;89.88;97825.03;4942648;28;20035;-49
2022/07/06 04:18:24;;;;;;;6.32;2.53;;;14.50;99.90;;;14.37;89.11;97823.22;4940936;28;20510;-47
2022/07/06 04:20:49;;;;;;;5.72;2.60;;;14.60;99.90;;;14.42;90.34;97813.25;4943162;28;20023;-47
2022/07/06 04:23:15;;;;;;;4.55;2.60;;;14.70;99.90;;;14.42;89.36;97821.22;4943684;28;20032;-48
2022/07/06 04:25:41;;;;;;;9.48;2.85;;;14.70;99.90;;;14.48;89.37;97826.25;4945942;28;20256;-48
2022/07/06 04:28:07;;;;;;;5.80;2.30;;;14.70;99.90;;;14.52;89.60;97835.81;4942940;28;20034;-48
2022/07/06 04:30:32;;;;;;;4.35;2.70;;;14.70;99.90;;;14.55;88.88;97832.13;4939897;28;20038;-46
2022/07/06 04:32:58;;;;;;;3.17;2.60;;;14.80;99.90;;;14.59;88.61;97835.53;4938202;28;20118;-47
2022/07/06 04:35:24;;;;;;;4.75;2.25;;;14.80;99.90;;;14.67;90.26;97833.41;4946927;28;20045;-46
2022/07/06 04:37:50;;;;;;;3.47;2.63;;;14.80;99.90;;;14.69;88.23;97842.16;4947136;28;20508;-46
2022/07/06 04:40:15;;;;;;;4.45;2.90;;;14.90;99.90;;;14.70;88.33;97843.88;4944366;28;20484;-47
2022/07/06 04:42:41;;;;;;;3.72;2.47;;;14.90;99.90;;;14.66;88.57;97837.84;4938950;29;20051;-47
2022/07/06 04:45:08;;;;;;;3.80;2.75;;;14.90;99.90;;;14.71;89.03;97848.25;4938763;29;20046;-47
2022/07/06 04:47:34;;;;;;;3.08;2.20;;;15.00;99.90;;;14.75;90.00;97849.84;4945620;28;20242;-46
2022/07/06 04:50:00;;;;;;;3.60;2.38;;;15.00;99.90;;;14.83;90.34;97852.13;4945181;28;20439;-47
2022/07/06 04:52:27;;;;;;;3.67;2.80;;;15.00;99.90;;;14.87;90.39;97843.09;4945149;29;20028;-46
2022/07/06 04:54:54;;;;;;;5.82;3.08;;;15.10;99.90;;;14.94;89.37;97843.66;4942647;28;20278;-49
2022/07/06 04:57:19;;;;;;;2.95;2.20;;;15.10;99.90;;;14.96;88.63;97847.09;4944931;28;20436;-47
2022/07/06 04:59:45;;;;;;;7.10;2.78;;;15.20;99.90;;;15.05;87.98;97852.81;4945316;28;20062;-46
2022/07/06 05:02:11;;;;;;;4.32;2.80;;;15.20;99.90;;;15.05;88.12;97852.81;4931676;28;20031;-51
2022/07/06 05:04:36;;;;;;;5.70;3.10;;;15.20;99.90;;;15.11;87.88;97851.69;4942294;28;20261;-47
2022/07/06 05:07:02;;;;;;;7.47;3.10;;;15.30;99.90;;;15.31;86.92;97863.13;4939029;28;20027;-49
2022/07/06 05:09:28;;;;;;;8.30;3.03;;;15.40;99.90;;;15.61;85.05;97855.44;4944896;28;20036;-48
2022/07/06 05:11:54;;;;;;;5.38;2.50;;;15.60;99.90;;;16.21;83.66;97857.75;4932194;28;20042;-46
2022/07/06 05:14:20;;;;;;;7.30;2.22;;;15.90;99.90;;;17.20;78.92;97861.28;4928906;28;20400;-47
2022/07/06 05:16:46;;;;;;;3.47;2.42;;;16.40;99.90;;;18.58;72.37;97865.63;4935670;28;20078;-48
2022/07/06 05:19:11;;;;;;;4.38;2.10;;;17.20;99.90;;;19.54;66.11;97868.44;4936013;29;21707;-50
2022/07/06 05:21:37;;;;;;;4.20;2.35;;;18.00;99.70;;;20.31;61.18;97873.13;4941558;29;20066;-48
2022/07/06 05:24:03;;;;;;;5.57;2.10;;;18.70;98.20;;;20.95;57.55;97868.63;4944138;29;20514;-46
2022/07/06 05:26:29;;;;;;;4.72;2.00;;;19.30;97.00;;;21.30;55.17;97867.03;4941964;28;20039;-50
2022/07/06 05:28:55;;;;;;;2.60;2.00;;;19.70;95.40;;;21.49;54.98;97866.59;4943762;28;20100;-46
2022/07/06 05:31:20;;;;;;;6.32;2.28;;;20.00;94.90;;;21.64;54.22;97873.50;4943846;28;20027;-47
2022/07/06 05:33:46;;;;;;;5.30;2.47;;;20.20;94.50;;;21.35;54.37;97873.81;4944678;28;20384;-49
2022/07/06 05:36:12;;;;;;;3.00;1.88;;;20.20;93.80;;;21.02;56.25;97885.13;4941474;28;20035;-50
2022/07/06 05:38:37;;;;;;;4.00;2.13;;;20.10;94.30;;;20.24;59.42;97878.03;4937587;28;20069;-47
2022/07/06 05:41:03;;;;;;;3.45;2.10;;;19.70;94.70;;;19.68;61.96;97888.06;4939117;28;20083;-48
2022/07/06 05:43:29;;;;;;;4.43;2.17;;;19.30;95.00;;;19.30;64.60;97878.91;4941425;28;20031;-46
2022/07/06 05:45:54;;;;;;;2.55;2.13;;;19.00;95.90;;;19.03;67.03;97882.41;4939389;28;20121;-47
2022/07/06 05:51:05;;;;;;;3.10;2.08;;;18.50;96.90;;;18.10;72.32;97873.00;4937039;29;20042;-47
2022/07/06 05:53:30;;;;;;;3.65;2.28;;;18.10;97.90;;;17.81;74.69;97874.69;4940805;29;20436;-48
2022/07/06 05:55:56;;;;;;;3.42;2.17;;;17.90;98.70;;;17.61;73.09;97875.88;4938316;29;20040;-49
2022/07/06 05:58:24;;;;;;;4.82;2.25;;;17.60;98.00;;;17.38;74.31;97872.69;4938496;28;20031;-46
2022/07/06 06:00:50;;;;;;;2.35;1.77;;;17.50;98.60;;;17.44;75.99;97877.66;4951891;28;20031;-46
2022/07/06 06:03:15;;;;;;;2.72;1.98;;;17.40;99.10;;;17.58;75.82;97876.88;4936619;28;20106;-50
2022/07/06 06:05:41;;;;;;;2.80;2.20;;;17.60;99.40;;;17.84;75.53;97877.19;4942589;29;20027;-47
2022/07/06 06:08:07;;;;;;;4.65;2.15;;;17.80;99.40;;;18.05;75.33;97875.06;4941941;29;20491;-48
2022/07/06 06:10:33;;;;;;;4.22;2.25;;;18.00;99.40;;;18.20;69.74;97879.50;4942434;29;20039;-52
2022/07/06 06:12:58;;;;;;;4.05;1.67;;;18.20;97.70;;;18.41;71.91;97877.34;4936547;28;20174;-47
2022/07/06 06:15:24;;;;;;;4.15;1.73;;;18.40;98.10;;;18.63;71.20;97878.69;4940556;29;20863;-49
2022/07/06 06:17:50;;;;;;;4.38;1.90;;;18.60;97.70;;;18.72;69.97;97891.47;4943555;28;20070;-47
2022/07/06 06:20:16;;;;;;;3.72;2.10;;;18.80;97.60;;;18.87;68.66;97885.19;4944631;28;20038;-51
2022/07/06 06:22:53;;;;;;;3.20;1.80;;;19.00;96.90;;;19.12;69.74;97888.13;4940177;29;20035;-49
2022/07/06 06:25:27;;;;;;;3.75;1.90;;;19.10;97.30;;;19.37;66.15;97895.44;4941011;28;20126;-47
2022/07/06 06:27:53;;;;;;;2.95;2.08;;;19.40;96.40;;;19.59;63.70;97897.56;4944301;29;20031;-48
2022/07/06 06:30:19;;;;;;;5.45;2.00;;;19.60;95.30;;;19.80;62.29;97898.00;4939287;28;20107;-47
2022/07/06 06:32:44;;;;;;;4.40;1.98;;;19.90;94.90;;;20.01;61.49;97909.09;4945008;28;20046;-49
2022/07/06 06:35:11;;;;;;;3.22;1.88;;;20.10;94.60;;;20.25;60.09;97900.34;4940240;28;20054;-48
2022/07/06 06:37:37;;;;;;;2.17;1.77;;;20.30;94.30;;;20.17;59.73;97895.50;4939895;29;20035;-50
2022/07/06 06:40:05;;;;;;;4.43;2.00;;;20.30;93.80;;;20.20;60.61;97909.53;4941836;29;20047;-48
2022/07/06 06:42:31;;;;;;;3.10;2.10;;;20.30;94.00;;;20.06;61.12;97908.75;4935889;28;20098;-47
2022/07/06 06:44:56;;;;;;;5.10;1.90;;;20.20;93.70;;;20.07;62.53;97910.50;4937427;29;20071;-47
2022/07/06 06:47:22;;;;;;;2.30;1.70;;;20.10;94.10;;;20.04;62.79;97908.88;4940149;28;20039;-48
2022/07/06 06:49:48;;;;;;;6.55;2.17;;;20.10;94.30;;;20.15;60.57;97913.50;4938933;29;20535;-48
2022/07/06 06:52:14;;;;;;;3.45;2.03;;;20.10;94.00;;;20.15;60.11;97913.50;4941101;28;20031;-46
2022/07/06 06:54:40;;;;;;;3.33;2.05;;;20.20;93.60;;;20.10;60.23;97911.16;4942327;29;20539;-50
2022/07/06 06:57:05;;;;;;;5.38;1.98;;;20.30;93.50;;;20.00;60.42;97908.22;4936886;29;20118;-47
2022/07/06 06:59:31;;;;;;;4.00;1.98;;;20.20;93.20;;;20.00;61.64;97907.38;4935589;28;20047;-48
2022/07/06 07:01:57;;;;;;;3.50;1.52;;;20.20;93.60;;;20.13;60.64;97896.69;4932728;28;20039;-51
2022/07/06 07:04:23;;;;;;;3.80;1.77;;;20.20;93.60;;;20.24;60.54;97895.94;4933634;28;20030;-51
2022/07/06 07:06:49;;;;;;;2.47;1.90;;;20.30;93.50;;;20.35;59.64;97904.97;4937178;28;20039;-51
2022/07/06 07:09:14;;;;;;;2.72;1.83;;;20.40;93.30;;;20.43;56.74;97901.75;4939459;28;20027;-49
2022/07/06 07:11:40;;;;;;;3.10;1.88;;;20.50;92.90;;;20.40;55.78;97899.28;4939179;29;20034;-49
2022/07/06 07:14:06;;;;;;;2.65;1.90;;;20.40;91.60;;;20.19;56.76;97905.16;4942181;29;20396;-46
2022/07/06 07:16:32;;;;;;;3.50;1.92;;;20.40;91.80;;;19.98;57.67;97909.28;4939399;28;20479;-51
2022/07/06 07:18:57;;;;;;;6.45;1.92;;;20.20;92.00;;;19.94;57.07;97903.28;4938281;28;20050;-48
2022/07/06 07:21:23;;;;;;;2.42;1.80;;;20.10;92.10;;;19.89;59.82;97900.06;4937225;29;20540;-52
2022/07/06 07:23:50;;;;;;;2.80;2.05;;;20.00;92.90;;;19.96;58.87;97901.34;4938576;28;20066;-48
2022/07/06 07:26:16;;;;;;;3.35;1.80;;;20.00;92.60;;;19.95;58.37;97899.63;4940165;29;20158;-52
2022/07/06 07:28:42;;;;;;;3.17;1.77;;;20.00;92.90;;;19.97;58.58;97897.72;4936847;29;20058;-50
2022/07/06 07:31:07;;;;;;;3.50;1.80;;;20.00;92.70;;;19.99;59.30;97898.47;4937233;29;20519;-47
2022/07/06 07:33:34;;;;;;;4.28;1.60;;;20.10;93.00;;;20.01;57.01;97903.75;4938791;28;20037;-48
2022/07/06 07:35:59;;;;;;;6.82;2.10;;;20.10;92.20;;;19.97;55.62;97896.84;4934607;28;20106;-48
2022/07/06 07:38:25;;;;;;;10.80;2.33;;;20.00;91.40;;;19.97;55.66;97894.19;4932329;29;21274;-51
2022/07/06 07:40:54;;;;;;;3.97;1.95;;;20.00;91.50;;;19.82;58.65;97888.88;4934007;28;20035;-48
2022/07/06 07:43:19;;;;;;;2.72;1.50;;;20.00;92.20;;;19.80;59.78;97890.81;4932650;29;20027;-49
2022/07/06 07:45:47;;;;;;;6.78;2.95;;;19.90;92.70;;;19.70;57.36;97886.16;4945439;28;20058;-50
2022/07/06 07:48:13;;;;;;;6.18;2.30;;;19.90;92.00;;;19.79;58.31;97897.16;4937994;28;20030;-50
2022/07/06 07:50:39;;;;;;;2.05;1.45;;;19.90;92.20;;;19.86;60.85;97889.53;4934457;28;20518;-51
2022/07/06 07:53:04;;;;;;;3.58;2.08;;;19.90;93.00;;;20.02;59.13;97897.41;4933991;29;20047;-52
2022/07/06 07:55:30;;;;;;;2.55;1.60;;;20.00;92.80;;;20.17;58.42;97890.13;4936308;28;20036;-50
2022/07/06 07:57:56;;;;;;;2.97;1.70;;;20.10;92.50;;;20.24;56.77;97890.59;4935367;28;20039;-47
2022/07/06 08:00:22;;;;;;;2.90;1.60;;;20.30;92.20;;;20.29;57.02;97891.97;4936123;29;21391;-49
2022/07/06 08:02:48;;;;;;;2.75;1.48;;;20.30;91.80;;;20.39;59.53;97887.72;4942369;28;20031;-50
2022/07/06 08:05:15;;;;;;;2.92;1.80;;;20.40;93.00;;;20.43;57.31;97892.88;4941218;28;20043;-47
2022/07/06 08:07:42;;;;;;;6.45;2.03;;;20.50;92.00;;;20.45;57.24;97897.16;4938236;28;20065;-50
2022/07/06 08:10:09;;;;;;;2.70;1.75;;;20.50;92.10;;;20.44;56.10;97891.88;4939368;28;20067;-51
2022/07/06 08:12:35;;;;;;;4.15;2.03;;;20.50;91.60;;;20.30;57.77;97893.72;4952898;28;20066;-50
2022/07/06 08:15:01;;;;;;;4.28;2.17;;;20.40;91.50;;;20.28;57.77;97894.75;4940159;28;20301;-50
2022/07/06 08:17:27;;;;;;;4.75;1.95;;;20.40;92.00;;;20.31;57.32;97890.06;4939363;28;20046;-51
2022/07/06 08:19:53;;;;;;;9.43;2.40;;;20.50;91.70;;;20.33;56.84;97893.50;4940775;28;20027;-50
2022/07/06 08:22:18;;;;;;;3.03;2.13;;;20.50;91.50;;;20.33;57.58;97890.84;4940194;28;20035;-48
2022/07/06 08:24:44;;;;;;;4.45;2.15;;;20.40;91.90;;;20.25;58.18;97893.16;4943848;28;20121;-50
2022/07/06 08:27:10;;;;;;;3.35;1.80;;;20.40;91.80;;;20.30;58.41;97895.53;4939675;28;20031;-51
2022/07/06 08:29:35;;;;;;;5.88;2.10;;;20.40;92.00;;;20.40;57.58;97896.59;4942760;28;20044;-48
2022/07/06 08:32:01;;;;;;;7.75;2.22;;;20.50;91.90;;;20.51;57.94;97903.91;4939887;28;20044;-47
2022/07/06 08:34:27;;;;;;;2.13;1.77;;;20.50;92.10;;;20.58;58.79;97894.47;4935767;28;20069;-49
2022/07/06 08:36:53;;;;;;;5.05;2.03;;;20.70;92.50;;;20.67;59.87;97887.63;4938583;28;20114;-49
2022/07/06 08:39:18;;;;;;;3.88;1.88;;;20.80;92.30;;;20.76;58.42;97893.22;4939861;28;20038;-48
2022/07/06 08:41:47;;;;;;;5.38;2.00;;;20.80;92.20;;;20.85;55.61;97889.00;4940378;29;20059;-48
2022/07/06 08:44:18;;;;;;;4.38;1.85;;;20.90;91.70;;;20.90;56.02;97892.22;4939440;29;20037;-47
2022/07/06 08:46:44;;;;;;;2.70;1.55;;;21.00;91.20;;;20.91;57.81;97888.59;4939152;28;20035;-46
2022/07/06 08:49:15;;;;;;;3.55;1.90;;;21.00;91.70;;;20.98;56.44;97897.06;4937721;29;20920;-48
2022/07/06 08:51:41;;;;;;;6.38;2.28;;;21.10;91.30;;;20.98;54.63;97889.88;4943021;29;20511;-47
2022/07/06 08:54:08;;;;;;;3.78;1.88;;;21.00;90.40;;;21.04;55.53;97893.06;4937957;28;20559;-51
2022/07/06 08:56:34;;;;;;;8.32;2.67;;;21.10;91.60;;;21.10;54.27;97892.63;4937357;29;20059;-48
2022/07/06 08:59:00;;;;;;;5.43;1.88;;;21.20;90.60;;;21.13;55.25;97890.59;4942564;28;20127;-47
2022/07/06 09:01:26;;;;;;;3.35;1.90;;;21.20;91.10;;;21.15;55.70;97896.69;4936547;29;20102;-48
2022/07/06 09:03:54;;;;;;;2.85;1.85;;;21.20;90.50;;;21.25;55.71;97894.22;4939773;28;20130;-48
2022/07/06 09:06:26;;;;;;;3.03;1.83;;;21.30;91.10;;;21.39;56.71;97895.00;4938891;29;20862;-48
2022/07/06 09:08:55;;;;;;;2.58;1.88;;;21.40;91.50;;;21.46;54.82;97899.00;4938712;28;20554;-50
2022/07/06 09:11:27;;;;;;;3.90;1.90;;;21.50;91.00;;;21.46;51.75;97907.94;4958413;23;20059;-39
2022/07/06 09:13:53;;;;;;;;;;;21.50;88.90;;;21.42;51.69;97901.00;4956235;28;20471;-39
2022/07/06 09:16:28;;;;;;;4.43;1.95;;;21.50;88.40;;;21.38;52.88;97901.38;4957737;28;19918;-39
2022/07/06 09:18:55;;;;;;;2.78;2.33;;;21.50;89.40;;;21.28;53.55;97903.84;4960905;28;20126;-39
2022/07/06 09:21:32;;;;;;;4.97;1.90;;;21.40;89.90;;;21.43;55.65;97901.91;4956031;28;20534;-39
2022/07/06 09:24:02;;;;;;;4.47;1.70;;;21.50;90.50;;;21.48;55.54;97908.66;4945372;29;20126;-39
2022/07/06 09:26:28;;;;;;;6.90;2.03;;;21.60;90.30;;;21.61;53.10;97907.75;4942206;29;20023;-41
2022/07/06 09:28:56;;;;;;;4.00;2.05;;;21.70;90.10;;;21.64;52.92;97911.09;4940931;28;20964;-41
2022/07/06 09:31:22;;;;;;;4.72;2.50;;;21.80;89.30;;;21.76;52.15;97906.59;4944317;28;20027;-41
2022/07/06 09:34:10;;;;;;;4.43;2.10;;;21.90;89.10;;;21.88;52.97;97916.44;4942842;29;20023;-41
2022/07/06 09:36:46;;;;;;;4.32;2.63;;;22.00;90.10;;;21.81;51.54;97914.34;4945334;28;20530;-40
2022/07/06 09:39:19;;;;;;;4.22;1.98;;;22.00;87.60;;;21.89;52.21;97917.28;4940308;28;20131;-41
2022/07/06 09:41:50;;;;;;;6.38;2.17;;;22.00;87.50;;;21.84;51.99;97923.00;4940032;28;20031;-40
2022/07/06 09:44:28;;;;;;;4.45;2.30;;;22.00;86.90;;;21.86;51.49;97929.13;4945276;28;20514;-41
2022/07/06 09:47:05;;;;;;;5.03;2.00;;;22.00;87.40;;;21.93;49.01;97925.00;4937144;28;20039;-40
2022/07/06 09:49:30;;;;;;;2.30;1.88;;;22.10;86.30;;;22.03;49.98;97927.00;4926955;29;20127;-40
2022/07/06 09:52:00;;;;;;;4.20;2.42;;;22.10;86.30;;;21.95;49.02;97926.69;4937407;28;20696;-40
2022/07/06 09:54:26;;;;;;;3.00;1.88;;;22.10;84.70;;;21.84;49.23;97923.00;4942853;29;20502;-40
2022/07/06 09:56:54;;;;;;;2.83;1.63;;;22.00;84.80;;;21.96;51.46;97923.06;4941480;29;20517;-41
2022/07/06 09:59:26;;;;;;;4.00;2.30;;;22.00;87.60;;;21.96;52.58;97917.69;4942352;29;20039;-41
2022/07/06 10:01:54;;;;;;;1.98;1.70;;;22.10;86.80;;;21.87;52.05;97912.03;4940299;28;20027;-41
2022/07/06 10:04:20;;;;;;;2.42;1.67;;;22.10;88.30;;;22.12;51.43;97929.81;4942870;29;20047;-41
2022/07/06 10:06:47;;;;;;;5.68;2.50;;;22.20;87.20;;;22.10;50.99;97920.19;4922120;29;20490;-41
2022/07/06 10:09:14;;;;;;;4.85;2.15;;;22.30;87.30;;;22.23;51.30;97928.16;4938357;29;20042;-41
2022/07/06 10:11:53;;;;;;;3.67;1.70;;;22.40;87.20;;;22.47;51.69;97933.53;4941824;28;20046;-41
2022/07/06 10:14:25;;;;;;;4.93;2.28;;;22.50;87.40;;;22.63;50.83;97933.19;4942838;29;20035;-41
2022/07/06 10:16:51;;;;;;;4.38;2.00;;;22.80;88.00;;;22.72;50.68;97931.59;4936402;28;20119;-40
2022/07/06 10:19:21;;;;;;;4.97;2.25;;;22.90;86.80;;;22.93;51.70;97934.47;4937920;28;20089;-41
2022/07/06 10:21:47;;;;;;;3.17;2.00;;;23.00;87.80;;;23.03;48.94;97924.69;4940990;28;20089;-41